Time;durP1;ratioP1;P1;durP2;ratioP2;P2;SDS_P1;SDS_P2;PMS_P1;PMS_P2;Temp;Humidity;BMP_temperature;BMP_pressure;BME280_temperature;BME280_humidity;BME280_pressure;Samples;Min_cycle;Max_cycle;Signal;HPM_P1;HPM_P2
2022/03/26 00:00:36;;;;;;;47.57;25.43;;;4.40;99.90;;;;;;5014323;28;20024;-75
2022/03/26 00:03:03;;;;;;;37.47;23.10;;;4.40;99.90;;;;;;4995817;28;20034;-75
2022/03/26 00:05:28;;;;;;;44.10;25.07;;;4.30;99.90;;;;;;4996030;28;20478;-75
2022/03/26 00:07:54;;;;;;;46.03;24.60;;;4.30;99.90;;;;;;5013962;28;20037;-74
2022/03/26 00:10:19;;;;;;;46.47;25.47;;;4.20;99.90;;;;;;4996207;28;20036;-74
2022/03/26 00:12:45;;;;;;;43.67;25.63;;;4.20;99.90;;;;;;5013825;28;20032;-74
2022/03/26 00:15:12;;;;;;;42.90;25.97;;;4.10;99.90;;;;;;4996178;28;20168;-74
2022/03/26 00:17:38;;;;;;;43.33;24.73;;;4.10;99.90;;;;;;5013686;28;20022;-74
2022/03/26 00:20:06;;;;;;;42.33;23.10;;;4.10;99.90;;;;;;5014158;28;20483;-75
2022/03/26 00:22:32;;;;;;;49.23;24.40;;;4.00;99.90;;;;;;5013917;28;20033;-74
2022/03/26 00:24:57;;;;;;;47.67;26.10;;;4.00;99.90;;;;;;5013539;28;20049;-74
2022/03/26 00:27:24;;;;;;;42.57;23.60;;;4.00;99.90;;;;;;5013371;28;20069;-75
2022/03/26 00:29:49;;;;;;;46.80;25.30;;;3.90;99.90;;;;;;5013508;28;20049;-75
2022/03/26 00:32:15;;;;;;;37.97;22.07;;;3.90;99.90;;;;;;4995625;28;20127;-74
2022/03/26 00:34:41;;;;;;;39.47;24.00;;;3.80;99.90;;;;;;5012236;28;20173;-75
2022/03/26 00:37:06;;;;;;;41.10;25.43;;;3.70;99.90;;;;;;5013670;28;20066;-75
2022/03/26 00:39:32;;;;;;;46.50;24.80;;;3.70;99.90;;;;;;5013314;28;20029;-75
2022/03/26 00:41:58;;;;;;;43.87;24.97;;;3.60;99.90;;;;;;5013235;28;20104;-77
2022/03/26 00:44:24;;;;;;;46.03;25.03;;;3.60;99.90;;;;;;5013016;28;20038;-77
2022/03/26 00:46:50;;;;;;;39.90;24.27;;;3.50;99.90;;;;;;4995384;28;20370;-77
2022/03/26 00:49:17;;;;;;;45.67;25.40;;;3.50;99.90;;;;;;5013028;28;20030;-77
2022/03/26 00:51:43;;;;;;;43.73;24.73;;;3.50;99.90;;;;;;5013262;28;20091;-77
2022/03/26 00:54:08;;;;;;;40.83;23.87;;;3.40;99.90;;;;;;5013015;28;20026;-77
2022/03/26 00:56:35;;;;;;;48.87;26.63;;;3.40;99.90;;;;;;5012959;28;20031;-77
2022/03/26 00:59:01;;;;;;;41.17;26.43;;;3.30;99.90;;;;;;5012890;28;20088;-77
2022/03/26 01:01:26;;;;;;;41.40;24.67;;;3.30;99.90;;;;;;5012848;28;20026;-76
2022/03/26 01:03:52;;;;;;;44.33;26.10;;;3.20;99.90;;;;;;4995532;28;20037;-76
2022/03/26 01:06:18;;;;;;;48.47;28.37;;;3.20;99.90;;;;;;5012778;28;20022;-77
2022/03/26 01:08:45;;;;;;;43.57;26.27;;;3.10;99.90;;;;;;4995209;28;20061;-77
2022/03/26 01:11:10;;;;;;;49.00;28.33;;;3.10;99.90;;;;;;5012913;28;20108;-77
2022/03/26 01:13:38;;;;;;;49.17;26.67;;;3.10;99.90;;;;;;5012752;28;20385;-77
2022/03/26 01:16:07;;;;;;;47.47;27.70;;;3.10;99.90;;;;;;5015694;28;20030;-77
2022/03/26 01:18:33;;;;;;;44.87;27.63;;;3.10;99.90;;;;;;4999319;28;20026;-77
2022/03/26 01:20:59;;;;;;;53.40;28.57;;;3.20;99.90;;;;;;5016807;28;20022;-77
2022/03/26 01:23:26;;;;;;;49.50;28.17;;;3.20;99.90;;;;;;4999439;28;20032;-77
2022/03/26 01:25:51;;;;;;;50.80;27.90;;;3.20;99.90;;;;;;5016798;28;20030;-77
2022/03/26 01:28:17;;;;;;;46.13;28.37;;;3.20;99.90;;;;;;5015201;28;20030;-77
2022/03/26 01:30:43;;;;;;;45.10;27.30;;;3.20;99.90;;;;;;4998817;28;20136;-77
2022/03/26 01:33:09;;;;;;;44.47;27.13;;;3.20;99.90;;;;;;5016854;28;20172;-77
2022/03/26 01:35:34;;;;;;;48.07;28.47;;;3.30;99.90;;;;;;5003485;28;20046;-77
2022/03/26 01:38:01;;;;;;;51.27;28.83;;;3.30;99.90;;;;;;4996487;28;20113;-76
2022/03/26 01:40:27;;;;;;;50.20;28.53;;;3.30;99.90;;;;;;4979129;28;20484;-76
2022/03/26 01:42:54;;;;;;;45.03;25.83;;;3.30;99.90;;;;;;4979154;28;20530;-76
2022/03/26 01:45:20;;;;;;;42.90;24.80;;;3.30;99.90;;;;;;4991861;28;20111;-76
2022/03/26 01:47:45;;;;;;;41.60;25.27;;;3.20;99.90;;;;;;5016802;28;20109;-77
2022/03/26 01:50:11;;;;;;;51.33;27.47;;;3.20;99.90;;;;;;5016119;28;20434;-76
2022/03/26 01:52:36;;;;;;;48.50;26.83;;;3.20;99.90;;;;;;5016342;28;20062;-76
2022/03/26 01:55:02;;;;;;;45.43;26.97;;;3.20;99.90;;;;;;4998410;28;20030;-76
2022/03/26 01:57:28;;;;;;;47.07;27.03;;;3.10;99.90;;;;;;4998179;28;20096;-76
2022/03/26 01:59:55;;;;;;;45.07;27.50;;;3.20;99.90;;;;;;5015815;28;20066;-76
2022/03/26 02:02:21;;;;;;;49.33;26.03;;;3.20;99.90;;;;;;5015926;28;20412;-77
2022/03/26 02:04:47;;;;;;;44.27;26.07;;;3.20;99.90;;;;;;4998213;28;20463;-77
2022/03/26 02:07:13;;;;;;;41.30;23.47;;;3.10;99.90;;;;;;5015782;28;20040;-77
2022/03/26 02:09:38;;;;;;;44.93;25.83;;;3.00;99.90;;;;;;5015751;28;20108;-77
2022/03/26 02:12:24;;;;;;;53.57;25.97;;;3.00;99.90;;;;;;5015119;28;20037;-77
2022/03/26 02:14:50;;;;;;;46.03;25.25;;;3.00;99.90;;;;;;5015690;28;20058;-77
2022/03/26 02:17:17;;;;;;;38.30;24.10;;;3.00;99.90;;;;;;5014345;28;20477;-77
2022/03/26 02:19:53;;;;;;;47.83;25.67;;;2.90;99.90;;;;;;5015510;28;20096;-77
2022/03/26 02:22:20;;;;;;;42.40;24.67;;;2.90;99.90;;;;;;5010030;28;20037;-77
2022/03/26 02:24:46;;;;;;;39.03;24.03;;;2.90;99.90;;;;;;4992334;28;20062;-77
2022/03/26 02:27:12;;;;;;;43.73;24.20;;;2.80;99.90;;;;;;5014816;28;20029;-77
2022/03/26 02:29:38;;;;;;;43.77;25.67;;;2.80;99.90;;;;;;5015393;28;20553;-77
2022/03/26 02:32:04;;;;;;;45.47;26.33;;;2.80;99.90;;;;;;5014085;28;20168;-77
2022/03/26 02:34:30;;;;;;;56.67;26.87;;;2.80;99.90;;;;;;5015359;28;20021;-77
2022/03/26 02:36:57;;;;;;;48.27;26.63;;;2.70;99.90;;;;;;5015185;28;20026;-77
2022/03/26 02:39:22;;;;;;;55.90;28.70;;;2.70;99.90;;;;;;5015433;28;20058;-77
2022/03/26 02:41:48;;;;;;;52.43;28.53;;;2.70;99.90;;;;;;4997402;28;20505;-77
2022/03/26 02:44:14;;;;;;;43.17;25.03;;;2.70;99.90;;;;;;5015260;28;20525;-77
2022/03/26 02:46:39;;;;;;;43.60;26.00;;;2.70;99.90;;;;;;5015405;28;20080;-77
2022/03/26 02:49:05;;;;;;;44.20;25.83;;;2.60;99.90;;;;;;5013627;28;20131;-77
2022/03/26 02:51:30;;;;;;;44.53;26.07;;;2.60;99.90;;;;;;5015187;28;20030;-77
2022/03/26 02:53:56;;;;;;;44.70;26.10;;;2.60;99.90;;;;;;5013821;28;20049;-77
2022/03/26 02:56:22;;;;;;;43.53;26.50;;;2.60;99.90;;;;;;5014915;28;20025;-77
2022/03/26 02:58:48;;;;;;;46.97;26.37;;;2.60;99.90;;;;;;5014619;28;20498;-78
2022/03/26 03:01:14;;;;;;;55.33;29.03;;;2.60;99.90;;;;;;4979757;28;20044;-78
2022/03/26 03:03:40;;;;;;;58.63;32.37;;;2.60;99.90;;;;;;4995264;28;20026;-77
2022/03/26 03:06:06;;;;;;;52.00;29.53;;;2.60;99.90;;;;;;4995119;28;20206;-77
2022/03/26 03:08:32;;;;;;;48.00;28.00;;;2.70;99.90;;;;;;4993836;28;20026;-78
2022/03/26 03:10:58;;;;;;;53.83;29.43;;;2.70;99.90;;;;;;4995435;28;20036;-77
2022/03/26 03:13:23;;;;;;;49.77;27.93;;;2.60;99.90;;;;;;4994141;28;20122;-77
2022/03/26 03:15:50;;;;;;;54.53;28.93;;;2.60;99.90;;;;;;4994859;28;20093;-78
2022/03/26 03:18:15;;;;;;;55.17;30.47;;;2.60;99.90;;;;;;4995424;28;20023;-78
2022/03/26 03:20:41;;;;;;;74.73;35.37;;;2.60;99.90;;;;;;5014821;28;20426;-78
2022/03/26 03:23:07;;;;;;;52.27;28.63;;;2.60;99.90;;;;;;5014231;28;20045;-78
2022/03/26 03:25:32;;;;;;;47.37;26.97;;;2.70;99.90;;;;;;5014595;28;20022;-78
2022/03/26 03:27:58;;;;;;;48.83;27.93;;;2.60;99.90;;;;;;4996606;28;20026;-78
2022/03/26 03:30:25;;;;;;;45.60;27.03;;;2.50;99.90;;;;;;5012932;28;20028;-78
2022/03/26 03:32:51;;;;;;;53.30;27.40;;;2.50;99.90;;;;;;5014005;28;20490;-77
2022/03/26 03:35:17;;;;;;;51.20;27.57;;;2.50;99.90;;;;;;5013952;28;20088;-77
2022/03/26 03:37:43;;;;;;;49.13;27.33;;;2.50;99.90;;;;;;4996118;28;20022;-77
2022/03/26 03:40:09;;;;;;;53.93;29.87;;;2.50;99.90;;;;;;5013439;28;20018;-77
2022/03/26 03:42:35;;;;;;;54.33;29.43;;;2.40;99.90;;;;;;4995932;28;20506;-77
2022/03/26 03:45:01;;;;;;;53.60;28.73;;;2.50;99.90;;;;;;4996064;28;20053;-77
2022/03/26 03:47:27;;;;;;;50.33;29.70;;;2.50;99.90;;;;;;5013526;28;20054;-77
2022/03/26 03:49:52;;;;;;;55.07;30.00;;;2.50;99.90;;;;;;5013748;28;20036;-77
2022/03/26 03:52:18;;;;;;;52.20;30.10;;;2.50;99.90;;;;;;5013770;28;20052;-77
2022/03/26 03:54:43;;;;;;;50.57;29.73;;;2.50;99.90;;;;;;4995822;28;20022;-77
2022/03/26 03:57:09;;;;;;;52.87;29.60;;;2.50;99.90;;;;;;4995747;28;20375;-77
2022/03/26 03:59:40;;;;;;;53.33;31.60;;;2.50;99.90;;;;;;5009192;28;20437;-77
2022/03/26 04:02:08;;;;;;;54.63;30.30;;;2.50;99.90;;;;;;4992822;28;20030;-77
2022/03/26 04:04:34;;;;;;;58.50;31.20;;;2.50;99.90;;;;;;4994088;28;20019;-78
2022/03/26 04:06:59;;;;;;;55.73;29.57;;;2.50;99.90;;;;;;4994232;28;20038;-77
2022/03/26 04:09:25;;;;;;;51.77;30.80;;;2.50;99.90;;;;;;4994185;28;20042;-78
2022/03/26 04:11:50;;;;;;;52.23;28.80;;;2.50;99.90;;;;;;4994944;28;20057;-77
2022/03/26 04:14:16;;;;;;;47.37;27.27;;;2.40;99.90;;;;;;5013795;28;20380;-77
2022/03/26 04:16:41;;;;;;;47.70;26.53;;;2.40;99.90;;;;;;4995717;28;20498;-77
2022/03/26 04:19:07;;;;;;;51.00;26.77;;;2.30;99.90;;;;;;5013514;28;20053;-77
2022/03/26 04:21:33;;;;;;;54.40;27.50;;;2.20;99.90;;;;;;5013596;28;20088;-77
2022/03/26 04:23:58;;;;;;;49.20;27.13;;;2.10;99.90;;;;;;5013390;28;20072;-77
2022/03/26 04:26:24;;;;;;;50.63;27.70;;;2.10;99.90;;;;;;5013309;28;20474;-77
2022/03/26 04:28:49;;;;;;;62.23;30.20;;;2.00;99.90;;;;;;5013435;28;20145;-77
2022/03/26 04:31:15;;;;;;;53.00;28.60;;;2.00;99.90;;;;;;5013351;28;20050;-77
2022/03/26 04:33:41;;;;;;;52.17;27.33;;;2.00;99.90;;;;;;4995695;28;20088;-77
2022/03/26 04:36:06;;;;;;;46.13;27.37;;;1.90;99.90;;;;;;4995482;28;20040;-78
2022/03/26 04:38:32;;;;;;;45.83;26.53;;;1.90;99.90;;;;;;5013417;28;20061;-77
2022/03/26 04:40:57;;;;;;;49.30;26.87;;;1.80;99.90;;;;;;4995745;28;20025;-76
2022/03/26 04:43:23;;;;;;;51.80;28.40;;;1.70;99.90;;;;;;5013696;28;20087;-77
2022/03/26 04:45:49;;;;;;;59.70;28.63;;;1.70;99.90;;;;;;5013223;28;20049;-77
2022/03/26 04:48:15;;;;;;;52.73;29.07;;;1.60;99.90;;;;;;5013432;28;20455;-77
2022/03/26 04:50:40;;;;;;;58.37;29.33;;;1.60;99.90;;;;;;4995183;28;20034;-76
2022/03/26 04:53:06;;;;;;;51.17;28.73;;;1.50;99.90;;;;;;4995350;28;20030;-77
2022/03/26 04:55:32;;;;;;;56.67;29.43;;;1.50;99.90;;;;;;5013337;28;20026;-76
2022/03/26 04:57:58;;;;;;;54.90;29.00;;;1.40;99.90;;;;;;5013257;28;20046;-76
2022/03/26 05:00:23;;;;;;;48.40;28.63;;;1.40;99.90;;;;;;5013408;28;20068;-77
2022/03/26 05:02:49;;;;;;;52.77;28.93;;;1.40;99.90;;;;;;5011856;28;20034;-78
2022/03/26 05:05:15;;;;;;;51.07;31.07;;;1.40;99.90;;;;;;5013459;28;20113;-77
2022/03/26 05:07:48;;;;;;;49.40;28.00;;;1.30;99.90;;;;;;5013441;28;20030;-77
2022/03/26 05:10:15;;;;;;;47.27;27.17;;;1.30;99.90;;;;;;5012681;28;20026;-77
2022/03/26 05:12:44;;;;;;;44.83;27.23;;;1.30;99.90;;;;;;5012451;28;20386;-77
2022/03/26 05:15:11;;;;;;;50.37;27.33;;;1.30;99.90;;;;;;5012199;28;20072;-77
2022/03/26 05:17:37;;;;;;;56.07;30.07;;;1.20;99.90;;;;;;5012388;28;20026;-77
2022/03/26 05:20:06;;;;;;;50.20;28.50;;;1.20;99.90;;;;;;5003983;28;20496;-77
2022/03/26 05:22:32;;;;;;;51.20;28.60;;;1.20;99.90;;;;;;5007993;28;20072;-77
2022/03/26 05:24:58;;;;;;;49.60;28.27;;;1.10;99.90;;;;;;4995336;28;20042;-76
2022/03/26 05:27:24;;;;;;;48.23;29.37;;;1.10;99.90;;;;;;5013070;28;20105;-76
2022/03/26 05:29:49;;;;;;;51.50;27.30;;;1.10;99.90;;;;;;5012909;28;20045;-77
2022/03/26 05:32:16;;;;;;;53.57;28.50;;;1.20;99.90;;;;;;5025367;23;20028;-74
2022/03/26 05:34:42;;;;;;;50.63;28.03;;;1.10;99.90;;;;;;5022689;28;20366;-75
2022/03/26 05:37:08;;;;;;;50.97;28.17;;;1.20;99.90;;;;;;5025291;28;20025;-73
2022/03/26 05:39:33;;;;;;;50.43;27.17;;;1.20;99.90;;;;;;5013040;28;20033;-73
2022/03/26 05:42:00;;;;;;;49.17;28.00;;;1.20;99.90;;;;;;5013031;28;20022;-74
2022/03/26 05:44:25;;;;;;;48.30;27.30;;;1.20;99.90;;;;;;5013240;28;20025;-74
2022/03/26 05:46:51;;;;;;;51.10;28.53;;;1.30;99.90;;;;;;5013019;28;20026;-74
2022/03/26 05:49:17;;;;;;;51.03;27.67;;;1.30;99.90;;;;;;5008412;28;20026;-74
2022/03/26 05:51:44;;;;;;;52.87;29.13;;;1.30;99.90;;;;;;5006674;28;20022;-74
2022/03/26 05:54:09;;;;;;;53.07;28.73;;;1.40;99.90;;;;;;5011487;28;20065;-74
2022/03/26 05:56:36;;;;;;;55.07;29.07;;;1.50;99.90;;;;;;5027713;28;20417;-73
2022/03/26 05:59:11;;;;;;;52.17;27.47;;;1.50;99.90;;;;;;5026476;28;20014;-74
2022/03/26 06:01:36;;;;;;;51.17;27.92;;;1.50;99.90;;;;;;5013582;28;20088;-74
2022/03/26 06:04:02;;;;;;;48.40;26.80;;;1.60;99.90;;;;;;5032171;28;20463;-74
2022/03/26 06:06:28;;;;;;;46.73;26.67;;;1.70;99.90;;;;;;5036131;28;20026;-74
2022/03/26 06:08:54;;;;;;;46.07;27.57;;;1.70;99.90;;;;;;5025185;28;20032;-74
2022/03/26 06:11:20;;;;;;;56.17;27.50;;;1.80;99.90;;;;;;5027613;28;20482;-74
2022/03/26 06:13:45;;;;;;;44.33;25.53;;;1.80;99.90;;;;;;5030875;28;20075;-74
2022/03/26 06:16:11;;;;;;;50.07;28.40;;;1.80;99.90;;;;;;5035929;28;20026;-74
2022/03/26 06:18:36;;;;;;;47.40;27.67;;;1.90;99.90;;;;;;5022542;28;20037;-74
2022/03/26 06:21:05;;;;;;;51.43;29.43;;;2.00;99.90;;;;;;4996740;28;20029;-75
2022/03/26 06:23:31;;;;;;;45.50;26.93;;;2.00;99.90;;;;;;4995298;28;20101;-75
2022/03/26 06:25:57;;;;;;;53.60;28.37;;;2.10;99.90;;;;;;5018771;28;20034;-74
2022/03/26 06:28:22;;;;;;;51.67;28.20;;;2.20;99.90;;;;;;5036043;28;20030;-74
2022/03/26 06:30:49;;;;;;;51.20;28.90;;;2.30;99.90;;;;;;5030027;28;20029;-75
2022/03/26 06:33:16;;;;;;;52.80;29.50;;;2.40;99.90;;;;;;5014750;28;20069;-74
2022/03/26 06:35:42;;;;;;;50.87;28.67;;;2.50;99.90;;;;;;5015858;28;20077;-74
2022/03/26 06:38:08;;;;;;;48.77;28.07;;;2.60;99.90;;;;;;5015656;28;20022;-74
2022/03/26 06:40:34;;;;;;;44.57;26.60;;;2.70;99.90;;;;;;5030435;28;20051;-68
2022/03/26 06:43:00;;;;;;;50.57;28.63;;;2.90;99.90;;;;;;5029367;28;20415;-74
2022/03/26 06:45:25;;;;;;;47.27;27.80;;;2.90;99.90;;;;;;5035479;28;20034;-75
2022/03/26 06:47:51;;;;;;;46.60;27.87;;;3.10;99.90;;;;;;5035561;28;20104;-74
2022/03/26 06:50:16;;;;;;;53.70;30.80;;;3.20;99.90;;;;;;5035796;28;20029;-74
2022/03/26 06:52:42;;;;;;;52.60;29.83;;;3.30;99.90;;;;;;5035296;28;20029;-74
2022/03/26 06:55:08;;;;;;;60.57;30.80;;;3.40;99.90;;;;;;5018913;28;20084;-74
2022/03/26 06:57:34;;;;;;;57.23;32.43;;;3.50;99.90;;;;;;5014146;28;20033;-74
2022/03/26 07:00:00;;;;;;;57.30;32.37;;;3.70;99.90;;;;;;5022454;28;20021;-74
2022/03/26 07:02:25;;;;;;;50.53;29.67;;;4.20;99.90;;;;;;5027767;28;20117;-75
2022/03/26 07:04:51;;;;;;;58.97;32.13;;;4.40;99.90;;;;;;5015408;28;20033;-74
2022/03/26 07:07:17;;;;;;;52.97;31.60;;;4.50;99.90;;;;;;5019238;28;20029;-74
2022/03/26 07:09:42;;;;;;;53.37;30.13;;;4.80;99.90;;;;;;5035324;28;20025;-74
2022/03/26 07:12:08;;;;;;;65.30;34.80;;;4.90;99.90;;;;;;5034654;28;20033;-74
2022/03/26 07:14:34;;;;;;;56.43;31.97;;;5.30;99.90;;;;;;5018649;28;20033;-75
2022/03/26 07:17:02;;;;;;;57.13;31.70;;;5.90;99.90;;;;;;5014956;28;20022;-74
2022/03/26 07:19:27;;;;;;;55.17;31.50;;;6.10;99.90;;;;;;5024667;28;20034;-74
2022/03/26 07:21:53;;;;;;;55.10;31.47;;;6.20;99.90;;;;;;5034805;28;20028;-74
2022/03/26 07:24:18;;;;;;;51.27;31.10;;;6.30;99.90;;;;;;5032847;28;20025;-69
2022/03/26 07:26:44;;;;;;;58.50;31.73;;;6.40;99.90;;;;;;5013940;28;20036;-76
2022/03/26 07:29:09;;;;;;;56.73;30.80;;;6.50;99.90;;;;;;5014947;28;20041;-76
2022/03/26 07:31:35;;;;;;;53.77;30.83;;;6.60;99.90;;;;;;5014915;28;20033;-76
2022/03/26 07:34:00;;;;;;;56.67;32.43;;;6.80;99.90;;;;;;5013356;28;20128;-76
2022/03/26 07:36:26;;;;;;;54.80;31.47;;;7.10;99.90;;;;;;5015074;28;20061;-76
2022/03/26 07:38:52;;;;;;;60.50;32.83;;;7.30;99.90;;;;;;5014739;28;20064;-76
2022/03/26 07:41:17;;;;;;;56.20;31.90;;;7.30;99.90;;;;;;5014863;28;20026;-75
2022/03/26 07:43:43;;;;;;;56.77;32.37;;;7.50;99.90;;;;;;5014610;28;20033;-75
2022/03/26 07:46:08;;;;;;;53.30;29.77;;;7.60;99.90;;;;;;5014516;28;20065;-76
2022/03/26 07:48:34;;;;;;;58.40;30.57;;;7.70;99.90;;;;;;5014580;28;20056;-74
2022/03/26 07:51:00;;;;;;;58.73;29.70;;;7.90;99.90;;;;;;5014645;28;20025;-75
2022/03/26 07:53:27;;;;;;;58.00;31.67;;;8.00;99.90;;;;;;5013798;28;20394;-75
2022/03/26 07:55:53;;;;;;;54.30;30.63;;;8.10;99.90;;;;;;5014839;28;20108;-76
2022/03/26 07:58:19;;;;;;;55.37;31.17;;;8.60;99.90;;;;;;5013024;28;20053;-76
2022/03/26 08:00:44;;;;;;;57.57;30.93;;;8.70;99.90;;;;;;5014324;28;20030;-76
2022/03/26 08:03:10;;;;;;;52.00;29.80;;;8.80;99.90;;;;;;5014191;28;20364;-76
2022/03/26 08:05:36;;;;;;;51.83;30.53;;;8.80;99.90;;;;;;5014219;28;20056;-76
2022/03/26 08:08:02;;;;;;;55.07;30.53;;;8.80;99.90;;;;;;5014518;28;20104;-76
2022/03/26 08:10:27;;;;;;;54.17;30.80;;;8.90;99.90;;;;;;5014112;28;20052;-76
2022/03/26 08:12:53;;;;;;;49.17;29.17;;;9.10;99.90;;;;;;5014406;28;20029;-76
2022/03/26 08:15:19;;;;;;;49.67;29.70;;;9.40;99.90;;;;;;5014159;28;20030;-76
2022/03/26 08:17:44;;;;;;;51.50;31.30;;;9.30;99.90;;;;;;5013992;28;20053;-76
2022/03/26 08:20:11;;;;;;;50.63;29.73;;;9.40;99.90;;;;;;5014331;28;20034;-76
2022/03/26 08:22:36;;;;;;;51.97;30.50;;;9.30;99.90;;;;;;5012668;28;20065;-76
2022/03/26 08:25:02;;;;;;;49.70;30.53;;;9.60;99.90;;;;;;5013475;28;20068;-76
2022/03/26 08:27:28;;;;;;;54.27;28.87;;;9.70;99.90;;;;;;5013875;28;20030;-76
2022/03/26 08:29:54;;;;;;;59.83;30.63;;;10.00;99.90;;;;;;5012808;28;20076;-76
2022/03/26 08:32:20;;;;;;;52.33;28.87;;;10.10;99.90;;;;;;5013280;28;20084;-76
2022/03/26 08:34:45;;;;;;;51.37;28.63;;;10.20;99.90;;;;;;5004387;28;20096;-81
2022/03/26 08:37:12;;;;;;;49.23;29.83;;;10.20;99.90;;;;;;4997612;28;20029;-79
2022/03/26 08:39:38;;;;;;;50.37;28.97;;;10.30;99.90;;;;;;5010686;28;20038;-69
2022/03/26 08:42:03;;;;;;;49.70;28.87;;;10.50;99.90;;;;;;5010333;28;20467;-69
2022/03/26 08:44:29;;;;;;;54.53;29.40;;;10.60;99.90;;;;;;5025619;28;20040;-78
2022/03/26 08:46:55;;;;;;;49.57;29.03;;;10.70;99.90;;;;;;5011606;28;20026;-79
2022/03/26 08:49:21;;;;;;;54.00;29.00;;;10.80;99.90;;;;;;5011592;28;20057;-79
2022/03/26 08:51:46;;;;;;;46.20;27.53;;;10.90;99.90;;;;;;5011393;28;20030;-78
2022/03/26 08:54:12;;;;;;;51.73;28.83;;;11.20;99.90;;;;;;5011373;28;20088;-79
2022/03/26 08:56:37;;;;;;;47.20;27.87;;;11.30;99.90;;;;;;5011326;28;20463;-79
2022/03/26 08:59:03;;;;;;;50.93;30.03;;;11.30;99.90;;;;;;5010359;28;20459;-83
2022/03/26 09:01:29;;;;;;;51.97;28.97;;;11.40;99.90;;;;;;5010399;28;20372;-83
2022/03/26 09:03:55;;;;;;;50.07;30.17;;;11.60;99.90;;;;;;5011076;28;20034;-83
2022/03/26 09:06:20;;;;;;;52.23;29.77;;;11.90;99.90;;;;;;5018326;28;20536;-83
2022/03/26 09:08:46;;;;;;;48.57;28.97;;;11.90;99.90;;;;;;5017111;28;20029;-84
2022/03/26 09:11:12;;;;;;;52.40;29.93;;;11.90;99.60;;;;;;5020842;28;20080;-84
2022/03/26 09:13:38;;;;;;;46.95;29.95;;;12.30;98.60;;;;;;5019099;28;20774;-84
2022/03/26 09:16:04;;;;;;;55.30;31.80;;;12.70;97.90;;;;;;5020823;28;20038;-81
2022/03/26 09:18:30;;;;;;;52.42;31.63;;;12.80;96.60;;;;;;5022168;28;20116;-82
2022/03/26 09:20:56;;;;;;;50.45;30.13;;;12.70;96.20;;;;;;5021379;28;20431;-83
2022/03/26 09:23:22;;;;;;;47.40;30.38;;;13.10;95.90;;;;;;5023687;28;20021;-89
2022/03/26 09:25:47;;;;;;;46.00;29.77;;;13.60;94.60;;;;;;5016068;28;20532;-79
2022/03/26 09:28:13;;;;;;;53.22;29.48;;;13.70;93.40;;;;;;5013609;28;20026;-79
2022/03/26 09:30:39;;;;;;;54.83;29.92;;;14.00;92.10;;;;;;5017913;28;20025;-82
2022/03/26 09:33:06;;;;;;;48.30;29.70;;;14.10;91.80;;;;;;5013517;28;20382;-79
2022/03/26 09:35:34;;;;;;;43.90;28.30;;;14.10;90.80;;;;;;5022937;28;20467;-81
2022/03/26 09:38:00;;;;;;;46.22;29.95;;;14.20;90.40;;;;;;5030482;28;20022;-77
2022/03/26 09:40:26;;;;;;;53.25;30.88;;;14.70;88.40;;;;;;5020165;28;20026;-85
2022/03/26 09:42:52;;;;;;;50.58;30.63;;;14.90;90.30;;;;;;5021669;28;20033;-85
2022/03/26 09:45:22;;;;;;;43.80;30.27;;;15.10;88.40;;;;;;5022525;28;20387;-85
2022/03/26 09:47:48;;;;;;;45.15;29.75;;;15.10;88.70;;;;;;5029904;28;20084;-84
2022/03/26 09:50:14;;;;;;;43.03;28.90;;;15.20;84.60;;;;;;5033120;28;20133;-76
2022/03/26 09:52:39;;;;;;;47.20;29.80;;;15.40;85.90;;;;;;5032769;28;20416;-84
2022/03/26 09:55:06;;;;;;;46.58;29.65;;;15.80;83.60;;;;;;5024049;28;20022;-84
2022/03/26 09:57:34;;;;;;;47.90;30.15;;;15.70;83.60;;;;;;5015226;28;20029;-85
2022/03/26 10:00:00;;;;;;;50.78;31.10;;;15.90;83.00;;;;;;4993717;28;20485;-88
2022/03/26 10:02:26;;;;;;;49.35;31.10;;;16.20;82.70;;;;;;4996165;28;20026;-72
2022/03/26 10:04:51;;;;;;;48.95;30.13;;;16.30;80.70;;;;;;4995868;28;20058;-81
2022/03/26 10:07:25;;;;;;;49.63;30.77;;;16.40;80.90;;;;;;4994621;28;20048;-84
2022/03/26 10:09:55;;;;;;;54.17;31.27;;;16.30;79.20;;;;;;4994668;28;20022;-81
2022/03/26 10:12:22;;;;;;;53.92;30.90;;;16.50;79.10;;;;;;4995225;28;20277;-81
2022/03/26 10:14:53;;;;;;;49.17;29.98;;;17.10;76.60;;;;;;4994956;28;20014;-83
2022/03/26 10:17:24;;;;;;;47.75;29.00;;;17.10;75.40;;;;;;5005066;28;20022;-83
2022/03/26 10:19:52;;;;;;;47.08;28.98;;;17.00;76.00;;;;;;5044670;28;20038;-82
2022/03/26 10:22:42;;;;;;;46.05;30.10;;;17.30;74.00;;;;;;4998325;28;20030;-82
2022/03/26 10:25:13;;;;;;;48.33;29.80;;;17.40;74.10;;;;;;5030061;28;20548;-84
2022/03/26 10:27:44;;;;;;;48.03;31.90;;;17.50;73.70;;;;;;5020125;28;20026;-78
2022/03/26 10:30:11;;;;;;;47.35;29.63;;;17.50;72.50;;;;;;5026479;28;20021;-79
2022/03/26 10:32:39;;;;;;;49.28;31.55;;;17.60;73.50;;;;;;5027090;28;20390;-80
2022/03/26 10:35:25;;;;;;;46.13;29.48;;;17.60;73.30;;;;;;5030085;28;20021;-81
2022/03/26 10:37:59;;;;;;;44.58;30.88;;;18.00;71.20;;;;;;5023872;28;20022;-81
2022/03/26 10:40:30;;;;;;;46.40;31.50;;;18.40;68.70;;;;;;5023751;28;20026;-70
2022/03/26 10:43:01;;;;;;;56.20;31.02;;;18.70;67.40;;;;;;5024862;28;20034;-69
2022/03/26 10:45:28;;;;;;;43.55;29.35;;;18.60;66.60;;;;;;5023324;28;20029;-69
2022/03/26 10:47:56;;;;;;;45.90;30.42;;;18.50;66.40;;;;;;5026920;28;20025;-70
2022/03/26 10:50:22;;;;;;;55.42;31.77;;;18.10;66.90;;;;;;5024758;28;20049;-69
2022/03/26 10:52:47;;;;;;;43.97;28.83;;;18.30;66.90;;;;;;5027424;28;20155;-69
2022/03/26 10:55:18;;;;;;;44.50;28.98;;;18.40;65.60;;;;;;5025985;28;20374;-69
2022/03/26 10:57:45;;;;;;;42.67;28.52;;;18.60;64.30;;;;;;5010152;28;20494;-69
2022/03/26 11:00:13;;;;;;;51.40;30.80;;;19.00;63.30;;;;;;5023936;28;20028;-71
2022/03/26 11:02:39;;;;;;;46.28;29.85;;;19.00;62.20;;;;;;5029761;28;20017;-72
2022/03/26 11:05:05;;;;;;;43.40;28.65;;;18.90;63.20;;;;;;5011832;28;20034;-74
2022/03/26 11:07:32;;;;;;;46.72;28.90;;;19.00;62.30;;;;;;5012294;28;20038;-74
2022/03/26 11:09:58;;;;;;;40.28;28.23;;;19.10;62.30;;;;;;5011050;28;20042;-74
2022/03/26 11:12:25;;;;;;;42.83;28.95;;;19.20;62.00;;;;;;5019697;28;20034;-69
2022/03/26 11:14:52;;;;;;;39.17;27.00;;;19.30;60.80;;;;;;5027575;28;20017;-69
2022/03/26 11:17:55;;;;;;;38.65;26.67;;;19.50;58.90;;;;;;5032224;28;20435;-69
2022/03/26 11:20:42;;;;;;;40.25;27.95;;;19.40;58.10;;;;;;5032463;28;20113;-69
2022/03/26 11:23:53;;;;;;;43.83;27.73;;;19.60;57.70;;;;;;5030831;28;20029;-72
2022/03/26 11:26:38;;;;;;;39.20;26.58;;;19.50;57.30;;;;;;5026719;28;20038;-68
2022/03/26 11:29:25;;;;;;;39.05;26.58;;;19.50;56.50;;;;;;5033120;28;20187;-68
2022/03/26 11:32:05;;;;;;;37.13;25.95;;;19.40;56.40;;;;;;5032246;28;20037;-68
2022/03/26 11:34:37;;;;;;;41.42;26.23;;;19.50;56.50;;;;;;5012982;28;20044;-69
2022/03/26 11:37:13;;;;;;;39.30;26.42;;;19.40;55.90;;;;;;5005361;28;20053;-68
2022/03/26 11:39:47;;;;;;;47.95;27.70;;;19.40;55.80;;;;;;4992029;28;20130;-71
2022/03/26 11:42:13;;;;;;;42.50;28.20;;;19.30;56.40;;;;;;4993402;28;20027;-71
2022/03/26 11:50:40;;;;;;;37.78;26.70;;;19.60;57.00;;;;;;4993074;28;20382;-71
2022/03/26 11:53:12;;;;;;;37.72;25.30;;;19.70;55.00;;;;;;4993542;28;20120;-70
2022/03/26 11:55:46;;;;;;;34.03;25.03;;;20.00;54.00;;;;;;4992999;28;20023;-70
2022/03/26 11:58:24;;;;;;;32.47;23.63;;;20.10;52.80;;;;;;4997801;28;20545;-69
2022/03/26 12:00:59;;;;;;;36.00;23.75;;;20.20;52.40;;;;;;4997431;28;20145;-71
2022/03/26 12:03:27;;;;;;;38.35;25.50;;;20.30;52.10;;;;;;4993028;28;20128;-71
2022/03/26 12:08:54;;;;;;;35.08;23.10;;;20.20;50.90;;;;;;5022505;28;20052;-68
2022/03/26 12:11:27;;;;;;;34.67;24.85;;;20.20;51.60;;;;;;5022027;28;20482;-70
2022/03/26 12:14:18;;;;;;;33.97;24.48;;;20.30;52.50;;;;;;5018047;28;20025;-69
2022/03/26 12:16:49;;;;;;;33.80;23.42;;;20.50;53.60;;;;;;5016001;28;20029;-68
2022/03/26 12:19:46;;;;;;;32.30;22.40;;;20.70;51.10;;;;;;5025794;28;20070;-68
2022/03/26 12:22:26;;;;;;;31.75;22.25;;;20.80;50.80;;;;;;5017872;28;20025;-68
2022/03/26 12:24:53;;;;;;;38.72;24.67;;;20.90;51.90;;;;;;5021976;28;20097;-79
2022/03/26 12:27:20;;;;;;;33.58;24.05;;;21.30;50.70;;;;;;5012195;28;20027;-69
2022/03/26 12:29:46;;;;;;;35.15;24.40;;;21.10;50.30;;;;;;5027998;28;20041;-68
2022/03/26 12:32:12;;;;;;;34.55;25.67;;;21.00;50.10;;;;;;5029616;28;20481;-67
2022/03/26 12:35:02;;;;;;;33.22;24.02;;;20.80;51.20;;;;;;5011241;28;20034;-68
2022/03/26 12:37:28;;;;;;;31.60;23.67;;;20.80;49.80;;;;;;5010978;28;20206;-69
2022/03/26 12:39:54;;;;;;;41.78;24.65;;;20.80;49.30;;;;;;5010553;28;20033;-73
2022/03/26 12:42:20;;;;;;;32.90;24.75;;;20.80;49.20;;;;;;5010244;28;20018;-69